sensor_id;sensor_type;location;lat;lon;timestamp;P1;durP1;ratioP1;P2;durP2;ratioP2
5333;SDS011;2689;50.954;7.116;2023-12-14T00:01:18;8.97;;;4.13;;
5333;SDS011;2689;50.954;7.116;2023-12-14T00:03:46;8.03;;;4.23;;
5333;SDS011;2689;50.954;7.116;2023-12-14T00:06:16;7.20;;;4.60;;
5333;SDS011;2689;50.954;7.116;2023-12-14T00:08:49;9.80;;;5.17;;
5333;SDS011;2689;50.954;7.116;2023-12-14T00:11:21;6.43;;;4.33;;
5333;SDS011;2689;50.954;7.116;2023-12-14T00:13:55;8.33;;;4.53;;
5333;SDS011;2689;50.954;7.116;2023-12-14T00:16:22;11.50;;;5.40;;
5333;SDS011;2689;50.954;7.116;2023-12-14T00:18:50;11.00;;;4.80;;
5333;SDS011;2689;50.954;7.116;2023-12-14T00:21:17;8.67;;;4.50;;
5333;SDS011;2689;50.954;7.116;2023-12-14T00:23:46;7.17;;;4.60;;
5333;SDS011;2689;50.954;7.116;2023-12-14T00:26:13;9.60;;;4.70;;
5333;SDS011;2689;50.954;7.116;2023-12-14T00:28:42;5.30;;;4.20;;
5333;SDS011;2689;50.954;7.116;2023-12-14T00:31:09;8.13;;;4.23;;
5333;SDS011;2689;50.954;7.116;2023-12-14T00:33:36;8.93;;;4.70;;
5333;SDS011;2689;50.954;7.116;2023-12-14T00:36:04;9.33;;;4.93;;
5333;SDS011;2689;50.954;7.116;2023-12-14T00:38:31;9.13;;;4.53;;
5333;SDS011;2689;50.954;7.116;2023-12-14T00:40:58;6.70;;;4.00;;
5333;SDS011;2689;50.954;7.116;2023-12-14T00:43:25;9.27;;;5.03;;
5333;SDS011;2689;50.954;7.116;2023-12-14T00:45:51;14.37;;;5.40;;
5333;SDS011;2689;50.954;7.116;2023-12-14T00:48:18;9.93;;;4.90;;
5333;SDS011;2689;50.954;7.116;2023-12-14T00:50:45;11.60;;;6.63;;
5333;SDS011;2689;50.954;7.116;2023-12-14T00:53:13;9.67;;;5.33;;
5333;SDS011;2689;50.954;7.116;2023-12-14T00:55:40;7.47;;;5.30;;
5333;SDS011;2689;50.954;7.116;2023-12-14T00:58:07;6.20;;;4.60;;
5333;SDS011;2689;50.954;7.116;2023-12-14T01:00:34;7.93;;;4.80;;
5333;SDS011;2689;50.954;7.116;2023-12-14T01:03:01;11.03;;;5.07;;
5333;SDS011;2689;50.954;7.116;2023-12-14T01:05:28;10.53;;;5.37;;
5333;SDS011;2689;50.954;7.116;2023-12-14T01:07:55;10.13;;;5.70;;
5333;SDS011;2689;50.954;7.116;2023-12-14T01:10:23;13.70;;;6.13;;
5333;SDS011;2689;50.954;7.116;2023-12-14T01:12:50;10.60;;;5.30;;
5333;SDS011;2689;50.954;7.116;2023-12-14T01:15:17;12.43;;;5.67;;
5333;SDS011;2689;50.954;7.116;2023-12-14T01:17:44;9.23;;;4.93;;
5333;SDS011;2689;50.954;7.116;2023-12-14T01:20:10;10.53;;;5.00;;
5333;SDS011;2689;50.954;7.116;2023-12-14T01:22:37;13.50;;;5.37;;
5333;SDS011;2689;50.954;7.116;2023-12-14T01:25:04;7.20;;;5.00;;
5333;SDS011;2689;50.954;7.116;2023-12-14T01:27:32;8.07;;;4.93;;
5333;SDS011;2689;50.954;7.116;2023-12-14T01:29:59;6.87;;;4.57;;
5333;SDS011;2689;50.954;7.116;2023-12-14T01:32:26;7.57;;;4.90;;
5333;SDS011;2689;50.954;7.116;2023-12-14T01:34:53;19.60;;;8.80;;
5333;SDS011;2689;50.954;7.116;2023-12-14T01:37:19;15.53;;;7.23;;
5333;SDS011;2689;50.954;7.116;2023-12-14T01:39:46;11.60;;;7.20;;
5333;SDS011;2689;50.954;7.116;2023-12-14T01:42:13;13.67;;;10.33;;
5333;SDS011;2689;50.954;7.116;2023-12-14T01:44:41;18.57;;;11.20;;
5333;SDS011;2689;50.954;7.116;2023-12-14T01:47:08;19.70;;;12.43;;
5333;SDS011;2689;50.954;7.116;2023-12-14T01:49:35;19.00;;;13.30;;
5333;SDS011;2689;50.954;7.116;2023-12-14T01:52:01;21.40;;;14.33;;
5333;SDS011;2689;50.954;7.116;2023-12-14T01:54:28;22.10;;;13.33;;
5333;SDS011;2689;50.954;7.116;2023-12-14T01:56:55;21.17;;;14.90;;
5333;SDS011;2689;50.954;7.116;2023-12-14T01:59:22;20.50;;;14.80;;
5333;SDS011;2689;50.954;7.116;2023-12-14T02:01:53;22.00;;;15.00;;
5333;SDS011;2689;50.954;7.116;2023-12-14T02:04:22;24.27;;;15.73;;
5333;SDS011;2689;50.954;7.116;2023-12-14T02:06:49;23.43;;;17.13;;
5333;SDS011;2689;50.954;7.116;2023-12-14T02:09:16;23.63;;;17.23;;
5333;SDS011;2689;50.954;7.116;2023-12-14T02:11:43;28.27;;;18.33;;
5333;SDS011;2689;50.954;7.116;2023-12-14T02:14:12;27.57;;;16.70;;
5333;SDS011;2689;50.954;7.116;2023-12-14T02:16:39;25.87;;;16.00;;
5333;SDS011;2689;50.954;7.116;2023-12-14T02:19:07;28.30;;;17.60;;
5333;SDS011;2689;50.954;7.116;2023-12-14T02:21:33;27.47;;;17.30;;
5333;SDS011;2689;50.954;7.116;2023-12-14T02:24:02;29.67;;;19.03;;
5333;SDS011;2689;50.954;7.116;2023-12-14T02:26:29;29.40;;;17.87;;
5333;SDS011;2689;50.954;7.116;2023-12-14T02:28:55;28.50;;;18.00;;
5333;SDS011;2689;50.954;7.116;2023-12-14T02:31:22;26.80;;;17.80;;
5333;SDS011;2689;50.954;7.116;2023-12-14T02:33:49;25.97;;;17.10;;
5333;SDS011;2689;50.954;7.116;2023-12-14T02:36:16;23.20;;;14.63;;
5333;SDS011;2689;50.954;7.116;2023-12-14T02:38:43;25.23;;;16.27;;
5333;SDS011;2689;50.954;7.116;2023-12-14T02:41:11;25.80;;;17.03;;
5333;SDS011;2689;50.954;7.116;2023-12-14T02:43:38;28.53;;;17.30;;
5333;SDS011;2689;50.954;7.116;2023-12-14T02:46:05;28.27;;;18.40;;
5333;SDS011;2689;50.954;7.116;2023-12-14T02:48:32;29.43;;;17.03;;
5333;SDS011;2689;50.954;7.116;2023-12-14T02:50:59;32.70;;;19.00;;
5333;SDS011;2689;50.954;7.116;2023-12-14T02:53:26;35.23;;;20.60;;
5333;SDS011;2689;50.954;7.116;2023-12-14T02:55:53;31.50;;;17.73;;
5333;SDS011;2689;50.954;7.116;2023-12-14T02:58:21;33.37;;;20.03;;
5333;SDS011;2689;50.954;7.116;2023-12-14T03:00:49;32.93;;;19.77;;
5333;SDS011;2689;50.954;7.116;2023-12-14T03:03:16;30.47;;;19.17;;
5333;SDS011;2689;50.954;7.116;2023-12-14T03:05:43;36.27;;;18.93;;
5333;SDS011;2689;50.954;7.116;2023-12-14T03:08:10;25.90;;;17.23;;
5333;SDS011;2689;50.954;7.116;2023-12-14T03:10:37;29.70;;;17.43;;
5333;SDS011;2689;50.954;7.116;2023-12-14T03:13:03;28.73;;;16.73;;
5333;SDS011;2689;50.954;7.116;2023-12-14T03:15:32;27.37;;;16.03;;
5333;SDS011;2689;50.954;7.116;2023-12-14T03:17:58;26.80;;;15.60;;
5333;SDS011;2689;50.954;7.116;2023-12-14T03:20:25;26.67;;;15.77;;
5333;SDS011;2689;50.954;7.116;2023-12-14T03:22:52;24.50;;;14.90;;
5333;SDS011;2689;50.954;7.116;2023-12-14T03:25:18;21.93;;;14.10;;
5333;SDS011;2689;50.954;7.116;2023-12-14T03:27:45;23.13;;;14.03;;
5333;SDS011;2689;50.954;7.116;2023-12-14T03:30:12;25.37;;;15.43;;
5333;SDS011;2689;50.954;7.116;2023-12-14T03:32:40;24.60;;;14.63;;
5333;SDS011;2689;50.954;7.116;2023-12-14T03:35:07;23.87;;;15.20;;
5333;SDS011;2689;50.954;7.116;2023-12-14T03:37:34;24.30;;;15.90;;
5333;SDS011;2689;50.954;7.116;2023-12-14T03:40:01;24.00;;;16.27;;
5333;SDS011;2689;50.954;7.116;2023-12-14T03:42:28;26.80;;;16.00;;
5333;SDS011;2689;50.954;7.116;2023-12-14T03:44:55;25.10;;;15.90;;
5333;SDS011;2689;50.954;7.116;2023-12-14T03:47:22;27.30;;;17.20;;
5333;SDS011;2689;50.954;7.116;2023-12-14T03:49:50;22.30;;;16.00;;
5333;SDS011;2689;50.954;7.116;2023-12-14T03:52:16;23.97;;;15.90;;
5333;SDS011;2689;50.954;7.116;2023-12-14T03:54:43;24.77;;;16.97;;
5333;SDS011;2689;50.954;7.116;2023-12-14T03:57:10;22.80;;;16.27;;
5333;SDS011;2689;50.954;7.116;2023-12-14T03:59:38;20.50;;;12.87;;
5333;SDS011;2689;50.954;7.116;2023-12-14T04:02:05;21.47;;;15.90;;
5333;SDS011;2689;50.954;7.116;2023-12-14T04:04:32;22.40;;;14.73;;
5333;SDS011;2689;50.954;7.116;2023-12-14T04:07:00;20.80;;;13.80;;
5333;SDS011;2689;50.954;7.116;2023-12-14T04:09:27;22.00;;;14.77;;
5333;SDS011;2689;50.954;7.116;2023-12-14T04:11:54;19.80;;;14.10;;
5333;SDS011;2689;50.954;7.116;2023-12-14T04:14:20;18.20;;;13.27;;
5333;SDS011;2689;50.954;7.116;2023-12-14T04:16:47;17.43;;;12.17;;
5333;SDS011;2689;50.954;7.116;2023-12-14T04:19:14;16.07;;;12.20;;
5333;SDS011;2689;50.954;7.116;2023-12-14T04:21:40;15.00;;;12.17;;
5333;SDS011;2689;50.954;7.116;2023-12-14T04:24:09;13.30;;;10.20;;
5333;SDS011;2689;50.954;7.116;2023-12-14T04:26:37;14.73;;;10.60;;
5333;SDS011;2689;50.954;7.116;2023-12-14T04:29:04;12.97;;;10.20;;
5333;SDS011;2689;50.954;7.116;2023-12-14T04:31:31;13.67;;;9.87;;
5333;SDS011;2689;50.954;7.116;2023-12-14T04:33:58;11.57;;;8.67;;
5333;SDS011;2689;50.954;7.116;2023-12-14T04:36:25;10.33;;;9.03;;
5333;SDS011;2689;50.954;7.116;2023-12-14T04:38:52;11.30;;;8.40;;
5333;SDS011;2689;50.954;7.116;2023-12-14T04:41:20;9.87;;;7.43;;
5333;SDS011;2689;50.954;7.116;2023-12-14T04:43:46;11.27;;;8.80;;
5333;SDS011;2689;50.954;7.116;2023-12-14T04:46:20;10.50;;;8.63;;
5333;SDS011;2689;50.954;7.116;2023-12-14T04:48:47;9.87;;;7.73;;
5333;SDS011;2689;50.954;7.116;2023-12-14T04:51:13;10.73;;;7.70;;
5333;SDS011;2689;50.954;7.116;2023-12-14T04:53:40;10.00;;;8.63;;
5333;SDS011;2689;50.954;7.116;2023-12-14T04:56:09;12.37;;;9.23;;
5333;SDS011;2689;50.954;7.116;2023-12-14T04:58:38;12.97;;;10.17;;
5333;SDS011;2689;50.954;7.116;2023-12-14T05:01:05;11.73;;;9.47;;
5333;SDS011;2689;50.954;7.116;2023-12-14T05:03:32;13.37;;;10.13;;
5333;SDS011;2689;50.954;7.116;2023-12-14T05:06:01;15.70;;;10.70;;
5333;SDS011;2689;50.954;7.116;2023-12-14T05:08:27;15.67;;;11.37;;
5333;SDS011;2689;50.954;7.116;2023-12-14T05:10:54;15.20;;;11.90;;
5333;SDS011;2689;50.954;7.116;2023-12-14T05:13:21;14.63;;;11.47;;
5333;SDS011;2689;50.954;7.116;2023-12-14T05:15:49;14.70;;;12.20;;
5333;SDS011;2689;50.954;7.116;2023-12-14T05:18:17;17.00;;;12.30;;
5333;SDS011;2689;50.954;7.116;2023-12-14T05:20:43;16.87;;;11.60;;
5333;SDS011;2689;50.954;7.116;2023-12-14T05:23:10;17.37;;;12.83;;
5333;SDS011;2689;50.954;7.116;2023-12-14T05:25:38;16.93;;;12.07;;
5333;SDS011;2689;50.954;7.116;2023-12-14T05:28:04;19.10;;;13.27;;
5333;SDS011;2689;50.954;7.116;2023-12-14T05:30:31;26.53;;;15.73;;
5333;SDS011;2689;50.954;7.116;2023-12-14T05:32:59;23.03;;;15.57;;
5333;SDS011;2689;50.954;7.116;2023-12-14T05:35:26;25.37;;;17.87;;
5333;SDS011;2689;50.954;7.116;2023-12-14T05:37:53;27.60;;;18.37;;
5333;SDS011;2689;50.954;7.116;2023-12-14T05:40:20;24.50;;;17.00;;
5333;SDS011;2689;50.954;7.116;2023-12-14T05:42:46;28.47;;;19.10;;
5333;SDS011;2689;50.954;7.116;2023-12-14T05:45:13;29.97;;;18.10;;
5333;SDS011;2689;50.954;7.116;2023-12-14T05:47:40;28.43;;;17.60;;
5333;SDS011;2689;50.954;7.116;2023-12-14T05:50:09;27.07;;;18.67;;
5333;SDS011;2689;50.954;7.116;2023-12-14T05:52:35;24.00;;;16.60;;
5333;SDS011;2689;50.954;7.116;2023-12-14T05:55:03;24.33;;;16.87;;
5333;SDS011;2689;50.954;7.116;2023-12-14T05:57:30;27.37;;;18.00;;
5333;SDS011;2689;50.954;7.116;2023-12-14T05:59:57;23.93;;;16.33;;
5333;SDS011;2689;50.954;7.116;2023-12-14T06:02:23;28.30;;;15.50;;
5333;SDS011;2689;50.954;7.116;2023-12-14T06:04:50;27.33;;;17.00;;
5333;SDS011;2689;50.954;7.116;2023-12-14T06:07:18;24.23;;;17.10;;
5333;SDS011;2689;50.954;7.116;2023-12-14T06:09:45;25.73;;;17.67;;
5333;SDS011;2689;50.954;7.116;2023-12-14T06:12:11;23.77;;;17.23;;
5333;SDS011;2689;50.954;7.116;2023-12-14T06:14:39;24.87;;;15.60;;
5333;SDS011;2689;50.954;7.116;2023-12-14T06:17:05;27.80;;;16.70;;
5333;SDS011;2689;50.954;7.116;2023-12-14T06:19:32;25.00;;;15.67;;
5333;SDS011;2689;50.954;7.116;2023-12-14T06:21:59;23.83;;;15.27;;
5333;SDS011;2689;50.954;7.116;2023-12-14T06:24:27;22.97;;;14.90;;
5333;SDS011;2689;50.954;7.116;2023-12-14T06:26:54;26.10;;;16.37;;
5333;SDS011;2689;50.954;7.116;2023-12-14T06:29:21;22.47;;;15.33;;
5333;SDS011;2689;50.954;7.116;2023-12-14T06:31:48;28.60;;;17.70;;
5333;SDS011;2689;50.954;7.116;2023-12-14T06:34:14;26.73;;;17.30;;
5333;SDS011;2689;50.954;7.116;2023-12-14T06:36:41;28.73;;;17.07;;
5333;SDS011;2689;50.954;7.116;2023-12-14T06:39:08;25.40;;;15.40;;
5333;SDS011;2689;50.954;7.116;2023-12-14T06:41:37;27.90;;;17.83;;
5333;SDS011;2689;50.954;7.116;2023-12-14T06:44:04;28.07;;;17.50;;
5333;SDS011;2689;50.954;7.116;2023-12-14T06:46:34;25.53;;;16.50;;
5333;SDS011;2689;50.954;7.116;2023-12-14T06:49:00;28.00;;;18.00;;
5333;SDS011;2689;50.954;7.116;2023-12-14T06:51:27;26.53;;;17.17;;
5333;SDS011;2689;50.954;7.116;2023-12-14T06:53:54;29.17;;;17.83;;
5333;SDS011;2689;50.954;7.116;2023-12-14T06:56:21;28.33;;;16.00;;
5333;SDS011;2689;50.954;7.116;2023-12-14T06:58:49;26.03;;;17.60;;
5333;SDS011;2689;50.954;7.116;2023-12-14T07:01:16;26.20;;;16.93;;
5333;SDS011;2689;50.954;7.116;2023-12-14T07:03:43;39.90;;;19.60;;
5333;SDS011;2689;50.954;7.116;2023-12-14T07:06:11;35.53;;;21.60;;
5333;SDS011;2689;50.954;7.116;2023-12-14T07:08:39;38.37;;;22.60;;
5333;SDS011;2689;50.954;7.116;2023-12-14T07:11:06;40.67;;;23.30;;
5333;SDS011;2689;50.954;7.116;2023-12-14T07:13:33;38.03;;;21.23;;
5333;SDS011;2689;50.954;7.116;2023-12-14T07:16:05;34.97;;;20.97;;
5333;SDS011;2689;50.954;7.116;2023-12-14T07:18:33;37.03;;;20.30;;
5333;SDS011;2689;50.954;7.116;2023-12-14T07:21:01;41.87;;;19.87;;
5333;SDS011;2689;50.954;7.116;2023-12-14T07:23:28;32.20;;;19.23;;
5333;SDS011;2689;50.954;7.116;2023-12-14T07:25:54;31.07;;;20.20;;
5333;SDS011;2689;50.954;7.116;2023-12-14T07:28:21;31.53;;;18.60;;
5333;SDS011;2689;50.954;7.116;2023-12-14T07:30:48;35.30;;;20.40;;
5333;SDS011;2689;50.954;7.116;2023-12-14T07:33:17;34.00;;;19.80;;
5333;SDS011;2689;50.954;7.116;2023-12-14T07:35:43;27.67;;;16.57;;
5333;SDS011;2689;50.954;7.116;2023-12-14T07:38:10;28.43;;;19.53;;
5333;SDS011;2689;50.954;7.116;2023-12-14T07:40:36;40.87;;;21.17;;
5333;SDS011;2689;50.954;7.116;2023-12-14T07:43:03;32.30;;;19.40;;
5333;SDS011;2689;50.954;7.116;2023-12-14T07:45:30;29.90;;;17.67;;
5333;SDS011;2689;50.954;7.116;2023-12-14T07:47:57;31.20;;;18.90;;
5333;SDS011;2689;50.954;7.116;2023-12-14T07:50:25;32.90;;;21.80;;
5333;SDS011;2689;50.954;7.116;2023-12-14T07:52:52;34.10;;;19.43;;
5333;SDS011;2689;50.954;7.116;2023-12-14T07:55:19;29.67;;;19.73;;
5333;SDS011;2689;50.954;7.116;2023-12-14T07:57:49;30.20;;;18.90;;
5333;SDS011;2689;50.954;7.116;2023-12-14T08:00:18;29.93;;;18.73;;
5333;SDS011;2689;50.954;7.116;2023-12-14T08:02:46;33.03;;;19.83;;
5333;SDS011;2689;50.954;7.116;2023-12-14T08:05:13;31.70;;;19.27;;
5333;SDS011;2689;50.954;7.116;2023-12-14T08:07:42;28.73;;;19.23;;
5333;SDS011;2689;50.954;7.116;2023-12-14T08:10:09;30.83;;;18.07;;
5333;SDS011;2689;50.954;7.116;2023-12-14T08:12:42;28.17;;;18.70;;
5333;SDS011;2689;50.954;7.116;2023-12-14T08:15:09;27.83;;;16.23;;
5333;SDS011;2689;50.954;7.116;2023-12-14T08:17:50;30.30;;;18.03;;
5333;SDS011;2689;50.954;7.116;2023-12-14T08:20:17;28.60;;;18.00;;
5333;SDS011;2689;50.954;7.116;2023-12-14T08:22:47;28.67;;;15.77;;
5333;SDS011;2689;50.954;7.116;2023-12-14T08:25:14;28.27;;;16.50;;
5333;SDS011;2689;50.954;7.116;2023-12-14T08:27:49;24.20;;;15.17;;
5333;SDS011;2689;50.954;7.116;2023-12-14T08:30:17;27.80;;;16.60;;
5333;SDS011;2689;50.954;7.116;2023-12-14T08:32:44;25.87;;;15.37;;
5333;SDS011;2689;50.954;7.116;2023-12-14T08:35:11;28.20;;;16.47;;
5333;SDS011;2689;50.954;7.116;2023-12-14T08:37:49;25.43;;;15.07;;
5333;SDS011;2689;50.954;7.116;2023-12-14T08:40:16;28.00;;;17.10;;
5333;SDS011;2689;50.954;7.116;2023-12-14T08:42:43;27.80;;;16.87;;
5333;SDS011;2689;50.954;7.116;2023-12-14T08:45:10;31.87;;;15.87;;
5333;SDS011;2689;50.954;7.116;2023-12-14T08:47:37;30.50;;;17.87;;
5333;SDS011;2689;50.954;7.116;2023-12-14T08:50:05;33.60;;;16.83;;
5333;SDS011;2689;50.954;7.116;2023-12-14T08:52:35;31.27;;;17.57;;
5333;SDS011;2689;50.954;7.116;2023-12-14T08:55:04;26.00;;;15.50;;
5333;SDS011;2689;50.954;7.116;2023-12-14T08:57:31;32.10;;;18.20;;
5333;SDS011;2689;50.954;7.116;2023-12-14T09:00:06;32.17;;;17.20;;
5333;SDS011;2689;50.954;7.116;2023-12-14T09:02:34;29.80;;;18.43;;
5333;SDS011;2689;50.954;7.116;2023-12-14T09:05:01;36.60;;;21.60;;
5333;SDS011;2689;50.954;7.116;2023-12-14T09:07:29;33.13;;;17.30;;
5333;SDS011;2689;50.954;7.116;2023-12-14T09:09:56;32.47;;;19.27;;
5333;SDS011;2689;50.954;7.116;2023-12-14T09:12:24;41.10;;;20.17;;
5333;SDS011;2689;50.954;7.116;2023-12-14T09:14:51;33.20;;;20.00;;
5333;SDS011;2689;50.954;7.116;2023-12-14T09:17:18;37.43;;;21.20;;
5333;SDS011;2689;50.954;7.116;2023-12-14T09:19:44;36.37;;;19.10;;
5333;SDS011;2689;50.954;7.116;2023-12-14T09:22:12;36.70;;;21.60;;
5333;SDS011;2689;50.954;7.116;2023-12-14T09:24:39;40.60;;;20.17;;
5333;SDS011;2689;50.954;7.116;2023-12-14T09:27:06;41.90;;;21.13;;
5333;SDS011;2689;50.954;7.116;2023-12-14T09:29:34;34.33;;;18.90;;
5333;SDS011;2689;50.954;7.116;2023-12-14T09:32:01;33.03;;;19.53;;
5333;SDS011;2689;50.954;7.116;2023-12-14T09:34:29;35.70;;;20.33;;
5333;SDS011;2689;50.954;7.116;2023-12-14T09:36:55;38.43;;;20.97;;
5333;SDS011;2689;50.954;7.116;2023-12-14T09:39:32;37.50;;;21.30;;
5333;SDS011;2689;50.954;7.116;2023-12-14T09:42:16;41.33;;;24.73;;
5333;SDS011;2689;50.954;7.116;2023-12-14T09:44:46;35.47;;;20.57;;
5333;SDS011;2689;50.954;7.116;2023-12-14T09:47:17;30.53;;;17.27;;
5333;SDS011;2689;50.954;7.116;2023-12-14T09:49:51;35.60;;;21.20;;
5333;SDS011;2689;50.954;7.116;2023-12-14T09:52:19;32.70;;;19.47;;
5333;SDS011;2689;50.954;7.116;2023-12-14T09:55:00;29.03;;;16.50;;
5333;SDS011;2689;50.954;7.116;2023-12-14T09:57:30;38.57;;;20.30;;
5333;SDS011;2689;50.954;7.116;2023-12-14T10:00:05;38.57;;;19.43;;
5333;SDS011;2689;50.954;7.116;2023-12-14T10:02:39;34.40;;;21.40;;
5333;SDS011;2689;50.954;7.116;2023-12-14T10:05:09;33.90;;;19.77;;
5333;SDS011;2689;50.954;7.116;2023-12-14T10:07:40;38.73;;;19.90;;
5333;SDS011;2689;50.954;7.116;2023-12-14T10:10:13;31.77;;;18.10;;
5333;SDS011;2689;50.954;7.116;2023-12-14T10:12:53;32.97;;;18.93;;
5333;SDS011;2689;50.954;7.116;2023-12-14T10:18:23;37.10;;;20.03;;
5333;SDS011;2689;50.954;7.116;2023-12-14T10:20:55;36.57;;;20.27;;
5333;SDS011;2689;50.954;7.116;2023-12-14T10:23:34;36.70;;;19.00;;
5333;SDS011;2689;50.954;7.116;2023-12-14T10:26:04;37.00;;;20.63;;
5333;SDS011;2689;50.954;7.116;2023-12-14T10:28:31;38.30;;;20.90;;
5333;SDS011;2689;50.954;7.116;2023-12-14T10:31:10;42.80;;;22.50;;
5333;SDS011;2689;50.954;7.116;2023-12-14T10:36:27;43.83;;;24.00;;
5333;SDS011;2689;50.954;7.116;2023-12-14T10:39:04;39.50;;;20.27;;
5333;SDS011;2689;50.954;7.116;2023-12-14T10:41:34;51.67;;;26.40;;
5333;SDS011;2689;50.954;7.116;2023-12-14T10:44:12;51.03;;;27.93;;
5333;SDS011;2689;50.954;7.116;2023-12-14T10:46:48;50.90;;;25.13;;
5333;SDS011;2689;50.954;7.116;2023-12-14T10:49:16;54.43;;;26.30;;
5333;SDS011;2689;50.954;7.116;2023-12-14T10:51:45;49.37;;;26.60;;
5333;SDS011;2689;50.954;7.116;2023-12-14T10:54:12;60.03;;;28.30;;
5333;SDS011;2689;50.954;7.116;2023-12-14T10:56:44;50.07;;;25.30;;
5333;SDS011;2689;50.954;7.116;2023-12-14T10:59:15;49.63;;;26.13;;
5333;SDS011;2689;50.954;7.116;2023-12-14T11:01:57;54.57;;;30.13;;
5333;SDS011;2689;50.954;7.116;2023-12-14T11:04:45;55.97;;;26.40;;
5333;SDS011;2689;50.954;7.116;2023-12-14T11:10:22;59.00;;;31.23;;
5333;SDS011;2689;50.954;7.116;2023-12-14T11:12:50;64.10;;;32.50;;
5333;SDS011;2689;50.954;7.116;2023-12-14T11:15:28;57.37;;;27.47;;
5333;SDS011;2689;50.954;7.116;2023-12-14T11:20:50;63.60;;;32.90;;
5333;SDS011;2689;50.954;7.116;2023-12-14T11:23:29;66.33;;;32.67;;
5333;SDS011;2689;50.954;7.116;2023-12-14T11:26:09;64.37;;;31.30;;
5333;SDS011;2689;50.954;7.116;2023-12-14T11:28:51;63.30;;;31.70;;
5333;SDS011;2689;50.954;7.116;2023-12-14T11:31:30;62.10;;;32.87;;
5333;SDS011;2689;50.954;7.116;2023-12-14T11:34:16;54.87;;;32.20;;
5333;SDS011;2689;50.954;7.116;2023-12-14T11:39:54;58.00;;;31.70;;
5333;SDS011;2689;50.954;7.116;2023-12-14T11:42:21;53.60;;;27.60;;
5333;SDS011;2689;50.954;7.116;2023-12-14T11:44:48;57.77;;;32.17;;
5333;SDS011;2689;50.954;7.116;2023-12-14T11:47:15;54.43;;;29.50;;
5333;SDS011;2689;50.954;7.116;2023-12-14T11:49:43;56.07;;;29.53;;
5333;SDS011;2689;50.954;7.116;2023-12-14T11:52:18;50.57;;;28.87;;
5333;SDS011;2689;50.954;7.116;2023-12-14T11:54:45;49.50;;;27.87;;
5333;SDS011;2689;50.954;7.116;2023-12-14T11:57:12;43.10;;;25.77;;
5333;SDS011;2689;50.954;7.116;2023-12-14T11:59:40;40.13;;;23.20;;
5333;SDS011;2689;50.954;7.116;2023-12-14T12:02:07;43.13;;;25.03;;
5333;SDS011;2689;50.954;7.116;2023-12-14T12:04:36;47.13;;;25.60;;
5333;SDS011;2689;50.954;7.116;2023-12-14T12:07:05;37.53;;;21.70;;
5333;SDS011;2689;50.954;7.116;2023-12-14T12:09:36;39.20;;;23.50;;
5333;SDS011;2689;50.954;7.116;2023-12-14T12:12:07;43.27;;;23.73;;
5333;SDS011;2689;50.954;7.116;2023-12-14T12:14:39;39.77;;;21.90;;
5333;SDS011;2689;50.954;7.116;2023-12-14T12:17:07;37.27;;;23.00;;
5333;SDS011;2689;50.954;7.116;2023-12-14T12:19:35;38.63;;;23.17;;
5333;SDS011;2689;50.954;7.116;2023-12-14T12:22:12;42.70;;;24.50;;
5333;SDS011;2689;50.954;7.116;2023-12-14T12:24:42;36.63;;;22.57;;
5333;SDS011;2689;50.954;7.116;2023-12-14T12:27:09;39.07;;;23.17;;
5333;SDS011;2689;50.954;7.116;2023-12-14T12:29:36;35.37;;;22.57;;
5333;SDS011;2689;50.954;7.116;2023-12-14T12:32:09;37.03;;;23.67;;
5333;SDS011;2689;50.954;7.116;2023-12-14T12:34:37;36.37;;;22.80;;
5333;SDS011;2689;50.954;7.116;2023-12-14T12:37:03;41.03;;;22.90;;
5333;SDS011;2689;50.954;7.116;2023-12-14T12:39:32;41.77;;;25.83;;
5333;SDS011;2689;50.954;7.116;2023-12-14T12:41:59;38.50;;;22.57;;
5333;SDS011;2689;50.954;7.116;2023-12-14T12:44:26;35.37;;;22.33;;
5333;SDS011;2689;50.954;7.116;2023-12-14T12:46:53;39.17;;;22.90;;
5333;SDS011;2689;50.954;7.116;2023-12-14T12:49:23;38.53;;;24.23;;
5333;SDS011;2689;50.954;7.116;2023-12-14T12:51:50;40.57;;;26.00;;
5333;SDS011;2689;50.954;7.116;2023-12-14T12:54:17;40.70;;;24.93;;
5333;SDS011;2689;50.954;7.116;2023-12-14T12:56:45;44.50;;;26.60;;
5333;SDS011;2689;50.954;7.116;2023-12-14T12:59:13;43.97;;;25.30;;
5333;SDS011;2689;50.954;7.116;2023-12-14T13:01:40;40.53;;;25.03;;
5333;SDS011;2689;50.954;7.116;2023-12-14T13:04:23;40.50;;;24.30;;
5333;SDS011;2689;50.954;7.116;2023-12-14T13:06:51;34.87;;;18.63;;
5333;SDS011;2689;50.954;7.116;2023-12-14T13:09:18;37.10;;;23.03;;
5333;SDS011;2689;50.954;7.116;2023-12-14T13:11:47;39.50;;;24.43;;
5333;SDS011;2689;50.954;7.116;2023-12-14T13:14:13;40.87;;;23.30;;
5333;SDS011;2689;50.954;7.116;2023-12-14T13:16:40;39.77;;;22.30;;
5333;SDS011;2689;50.954;7.116;2023-12-14T13:19:08;35.57;;;22.10;;
5333;SDS011;2689;50.954;7.116;2023-12-14T13:21:35;32.90;;;20.70;;
5333;SDS011;2689;50.954;7.116;2023-12-14T13:24:01;34.60;;;20.77;;
5333;SDS011;2689;50.954;7.116;2023-12-14T13:26:29;33.07;;;20.90;;
5333;SDS011;2689;50.954;7.116;2023-12-14T13:28:57;37.87;;;22.90;;
5333;SDS011;2689;50.954;7.116;2023-12-14T13:31:24;34.80;;;22.47;;
5333;SDS011;2689;50.954;7.116;2023-12-14T13:33:51;30.90;;;18.47;;
5333;SDS011;2689;50.954;7.116;2023-12-14T13:36:18;32.33;;;20.50;;
5333;SDS011;2689;50.954;7.116;2023-12-14T13:38:45;30.10;;;18.73;;
5333;SDS011;2689;50.954;7.116;2023-12-14T13:41:12;32.30;;;19.77;;
5333;SDS011;2689;50.954;7.116;2023-12-14T13:43:39;35.33;;;21.20;;
5333;SDS011;2689;50.954;7.116;2023-12-14T13:46:07;30.97;;;18.80;;
5333;SDS011;2689;50.954;7.116;2023-12-14T13:48:34;31.70;;;19.53;;
5333;SDS011;2689;50.954;7.116;2023-12-14T13:51:01;27.67;;;18.53;;
5333;SDS011;2689;50.954;7.116;2023-12-14T13:53:28;28.00;;;17.37;;
5333;SDS011;2689;50.954;7.116;2023-12-14T13:55:55;28.37;;;16.23;;
5333;SDS011;2689;50.954;7.116;2023-12-14T13:58:23;24.60;;;16.87;;
5333;SDS011;2689;50.954;7.116;2023-12-14T14:00:50;26.10;;;16.80;;
5333;SDS011;2689;50.954;7.116;2023-12-14T14:03:18;20.27;;;14.53;;
5333;SDS011;2689;50.954;7.116;2023-12-14T14:05:45;25.50;;;16.63;;
5333;SDS011;2689;50.954;7.116;2023-12-14T14:08:12;27.40;;;15.87;;
5333;SDS011;2689;50.954;7.116;2023-12-14T14:10:38;20.80;;;14.33;;
5333;SDS011;2689;50.954;7.116;2023-12-14T14:13:05;20.23;;;13.33;;
5333;SDS011;2689;50.954;7.116;2023-12-14T14:15:32;15.73;;;10.93;;
5333;SDS011;2689;50.954;7.116;2023-12-14T14:17:59;19.70;;;12.30;;
5333;SDS011;2689;50.954;7.116;2023-12-14T14:20:27;17.03;;;12.87;;
5333;SDS011;2689;50.954;7.116;2023-12-14T14:22:54;20.73;;;11.70;;
5333;SDS011;2689;50.954;7.116;2023-12-14T14:25:21;14.73;;;11.50;;
5333;SDS011;2689;50.954;7.116;2023-12-14T14:27:48;18.80;;;11.30;;
5333;SDS011;2689;50.954;7.116;2023-12-14T14:30:14;15.93;;;11.33;;
5333;SDS011;2689;50.954;7.116;2023-12-14T14:32:42;14.00;;;9.57;;
5333;SDS011;2689;50.954;7.116;2023-12-14T14:35:10;14.53;;;10.13;;
5333;SDS011;2689;50.954;7.116;2023-12-14T14:37:38;12.70;;;8.93;;
5333;SDS011;2689;50.954;7.116;2023-12-14T14:40:10;15.23;;;9.40;;
5333;SDS011;2689;50.954;7.116;2023-12-14T14:42:38;14.97;;;10.33;;
5333;SDS011;2689;50.954;7.116;2023-12-14T14:45:05;13.63;;;10.30;;
5333;SDS011;2689;50.954;7.116;2023-12-14T14:47:33;16.17;;;9.80;;
5333;SDS011;2689;50.954;7.116;2023-12-14T14:50:00;15.20;;;9.57;;
5333;SDS011;2689;50.954;7.116;2023-12-14T14:52:29;14.87;;;9.77;;
5333;SDS011;2689;50.954;7.116;2023-12-14T14:54:57;15.73;;;9.40;;
5333;SDS011;2689;50.954;7.116;2023-12-14T14:57:24;13.80;;;9.90;;
5333;SDS011;2689;50.954;7.116;2023-12-14T14:59:50;12.27;;;9.03;;
5333;SDS011;2689;50.954;7.116;2023-12-14T15:02:18;10.40;;;7.43;;
5333;SDS011;2689;50.954;7.116;2023-12-14T15:04:44;17.43;;;9.07;;
5333;SDS011;2689;50.954;7.116;2023-12-14T15:07:11;11.20;;;8.50;;
5333;SDS011;2689;50.954;7.116;2023-12-14T15:09:38;12.90;;;9.60;;
5333;SDS011;2689;50.954;7.116;2023-12-14T15:12:07;13.70;;;10.00;;